Time;durP1;ratioP1;P1;durP2;ratioP2;P2;SDS_P1;SDS_P2;PMS_P1;PMS_P2;Temp;Humidity;BMP_temperature;BMP_pressure;BME280_temperature;BME280_humidity;BME280_pressure;Samples;Min_cycle;Max_cycle;Signal;HPM_P1;HPM_P2
2022/05/16 00:00:22;;;;;;;7.00;2.50;;;;;;;20.92;47.20;100421.53;4908251;29;20228;-69
2022/05/16 00:02:49;;;;;;;7.07;3.17;;;;;;;20.91;47.16;100414.50;4908366;29;20220;-69
2022/05/16 00:05:19;;;;;;;9.77;2.83;;;;;;;20.90;47.41;100418.22;4910176;29;20223;-69
2022/05/16 00:07:48;;;;;;;9.90;3.60;;;;;;;20.89;47.52;100416.56;4907106;29;20197;-68
2022/05/16 00:10:18;;;;;;;9.00;3.40;;;;;;;20.87;47.15;100416.78;4911415;29;20587;-68
2022/05/16 00:12:47;;;;;;;7.87;3.03;;;;;;;20.87;47.43;100410.56;4908801;29;20981;-68
2022/05/16 00:15:18;;;;;;;5.80;2.93;;;;;;;20.86;47.50;100408.91;4907591;29;20677;-69
2022/05/16 00:17:48;;;;;;;12.60;3.20;;;;;;;20.84;47.72;100411.03;4909268;29;20221;-68
2022/05/16 00:20:16;;;;;;;6.43;3.00;;;;;;;20.84;47.78;100411.03;4909162;29;20917;-68
2022/05/16 00:22:44;;;;;;;7.73;3.27;;;;;;;20.78;47.71;100404.59;4906466;29;20217;-68
2022/05/16 00:25:15;;;;;;;7.80;2.83;;;;;;;20.79;47.82;100408.13;4905638;29;20212;-68
2022/05/16 00:27:45;;;;;;;7.07;3.10;;;;;;;20.77;47.64;100408.34;4905812;29;20209;-69
2022/05/16 00:30:16;;;;;;;6.03;2.77;;;;;;;20.74;47.64;100399.88;4905028;29;20204;-68
2022/05/16 00:32:44;;;;;;;9.23;3.40;;;;;;;20.74;47.48;100403.41;4909592;29;20246;-69
2022/05/16 00:35:13;;;;;;;8.27;3.13;;;;;;;20.70;47.54;100404.03;4910005;29;20309;-68
2022/05/16 00:37:41;;;;;;;6.57;3.00;;;;;;;20.67;47.97;100399.91;4904238;29;20695;-69
2022/05/16 00:40:11;;;;;;;5.50;2.90;;;;;;;20.64;47.90;100403.88;4908094;29;20232;-68
2022/05/16 00:42:39;;;;;;;5.30;2.90;;;;;;;20.62;48.26;100392.47;4908684;29;20223;-68
2022/05/16 00:45:11;;;;;;;6.13;2.97;;;;;;;20.58;47.85;100404.69;4911930;29;20230;-68
2022/05/16 00:47:39;;;;;;;7.20;3.23;;;;;;;20.55;47.76;100405.16;4914138;29;20213;-69
2022/05/16 00:50:12;;;;;;;5.37;3.00;;;;;;;20.58;48.13;100399.31;4914657;29;20307;-69
2022/05/16 00:52:44;;;;;;;6.53;3.23;;;;;;;20.58;47.84;100393.94;4910387;29;20223;-69
2022/05/16 00:55:20;;;;;;;11.40;3.67;;;;;;;20.56;47.40;100390.66;4915410;29;20651;-68
2022/05/16 00:57:51;;;;;;;7.07;2.53;;;;;;;20.53;47.76;100390.25;4913361;29;20295;-69
2022/05/16 01:00:23;;;;;;;10.50;3.27;;;;;;;20.51;48.06;100387.75;4915903;29;20238;-69
2022/05/16 01:05:43;;;;;;;8.50;3.07;;;;;;;20.46;47.81;100401.06;4911126;29;20420;-68
2022/05/16 01:08:24;;;;;;;7.43;3.13;;;;;;;20.45;47.50;100394.00;4913405;29;20235;-68
2022/05/16 01:10:52;;;;;;;8.43;3.47;;;;;;;20.45;47.88;100391.31;4911842;29;20214;-68
2022/05/16 01:13:24;;;;;;;6.57;3.23;;;;;;;20.47;47.56;100389.25;4913659;29;20236;-68
2022/05/16 01:15:54;;;;;;;5.63;3.07;;;;;;;20.43;47.47;100385.31;4914914;29;20300;-68
2022/05/16 01:18:25;;;;;;;5.33;3.13;;;;;;;20.40;47.88;100391.16;4916786;29;20209;-68
2022/05/16 01:21:04;;;;;;;7.97;3.17;;;;;;;20.37;47.77;100383.47;4912251;29;20237;-68
2022/05/16 01:23:36;;;;;;;10.27;3.67;;;;;;;20.35;47.63;100390.94;4911562;29;20205;-68
2022/05/16 01:26:11;;;;;;;6.23;3.20;;;;;;;20.34;47.75;100397.34;4914902;29;20252;-68
2022/05/16 01:28:38;;;;;;;10.80;3.00;;;;;;;20.32;47.79;100410.16;4913524;29;20200;-69
2022/05/16 01:31:06;;;;;;;7.60;3.07;;;;;;;20.31;48.08;100397.78;4911846;29;20216;-69
2022/05/16 01:33:34;;;;;;;12.80;3.30;;;;;;;20.31;47.68;100392.41;4912124;29;20240;-69
2022/05/16 01:36:03;;;;;;;5.70;3.07;;;;;;;20.32;48.17;100391.31;4914156;29;20209;-69
2022/05/16 01:38:31;;;;;;;5.37;2.73;;;;;;;20.31;48.27;100384.31;4912453;29;20212;-69
2022/05/16 01:41:03;;;;;;;5.20;2.80;;;;;;;20.32;48.06;100385.94;4915951;29;20690;-69
2022/05/16 01:43:34;;;;;;;4.63;2.33;;;;;;;20.33;48.12;100384.06;4912503;29;20385;-69
2022/05/16 01:46:02;;;;;;;5.73;3.00;;;;;;;20.32;47.77;100380.56;4916820;29;20264;-69
2022/05/16 01:48:31;;;;;;;7.70;3.20;;;;;;;20.34;47.38;100386.59;4912857;29;20321;-69
2022/05/16 01:51:00;;;;;;;8.70;3.37;;;;;;;20.35;47.62;100393.63;4914726;29;20207;-69
2022/05/16 01:53:28;;;;;;;6.93;3.27;;;;;;;20.33;47.84;100395.69;4911739;29;20364;-69
2022/05/16 01:55:56;;;;;;;12.17;2.90;;;;;;;20.36;47.45;100406.06;4915215;29;20348;-69
2022/05/16 01:58:36;;;;;;;5.63;2.97;;;;;;;20.33;47.53;100411.81;4908479;29;20300;-67
2022/05/16 02:01:05;;;;;;;7.23;3.17;;;;;;;20.31;47.79;100408.53;4909830;29;20235;-68
2022/05/16 02:03:33;;;;;;;6.37;2.80;;;;;;;20.29;47.45;100400.69;4911253;29;20212;-68
2022/05/16 02:06:00;;;;;;;5.60;3.20;;;;;;;20.27;47.20;100401.91;4910637;29;20828;-68
2022/05/16 02:08:28;;;;;;;7.87;2.90;;;;;;;20.26;47.72;100403.78;4911058;29;20217;-68
2022/05/16 02:10:56;;;;;;;7.70;3.27;;;;;;;20.24;47.81;100396.94;4910417;29;20272;-69
2022/05/16 02:13:24;;;;;;;5.10;2.57;;;;;;;20.23;47.81;100400.69;4910367;29;20239;-68
2022/05/16 02:15:56;;;;;;;9.97;2.90;;;;;;;20.22;47.91;100396.34;4912129;29;20213;-68
2022/05/16 02:18:24;;;;;;;9.77;2.87;;;;;;;20.16;48.14;100389.13;4910177;29;20217;-68
2022/05/16 02:20:52;;;;;;;5.80;2.90;;;;;;;20.06;48.39;100380.66;4907849;29;20237;-68
2022/05/16 02:26:22;;;;;;;9.77;3.07;;;;;;;20.05;48.47;100381.72;4864294;29;20242;-68
2022/05/16 02:28:50;;;;;;;9.27;3.77;;;;;;;20.07;48.45;100393.06;4869355;29;20590;-68
2022/05/16 02:31:25;;;;;;;8.13;3.07;;;;;;;20.08;47.69;100383.97;4888056;29;20574;-67
2022/05/16 02:33:55;;;;;;;5.83;2.77;;;;;;;20.09;47.82;100378.38;4909904;29;20209;-67
2022/05/16 02:36:23;;;;;;;6.03;2.80;;;;;;;20.07;47.87;100388.53;4911998;29;20324;-68
2022/05/16 02:38:54;;;;;;;9.00;3.10;;;;;;;20.03;47.81;100391.88;4912063;29;20240;-68
2022/05/16 02:41:21;;;;;;;6.63;2.97;;;;;;;19.91;48.64;100410.50;4910581;29;20247;-68
2022/05/16 02:43:51;;;;;;;7.60;3.10;;;;;;;19.88;48.55;100410.91;4910417;29;20213;-68
2022/05/16 02:46:23;;;;;;;8.37;3.00;;;;;;;19.75;49.12;100414.47;4907096;29;20215;-68
2022/05/16 02:48:50;;;;;;;6.10;3.47;;;;;;;19.77;49.03;100401.66;4908356;29;20752;-68
2022/05/16 02:51:18;;;;;;;7.17;3.03;;;;;;;19.79;49.14;100404.94;4910949;29;20302;-68
2022/05/16 02:53:46;;;;;;;8.93;3.30;;;;;;;19.85;49.19;100409.50;4907171;29;20209;-68
2022/05/16 02:56:14;;;;;;;7.27;3.10;;;;;;;19.77;49.60;100407.03;4909303;29;20685;-68
2022/05/16 02:58:43;;;;;;;7.37;2.87;;;;;;;19.76;49.00;100405.38;4910176;29;20220;-68
2022/05/16 03:01:11;;;;;;;7.40;3.00;;;;;;;19.80;49.36;100420.03;4912050;29;20319;-68
2022/05/16 03:03:41;;;;;;;8.00;3.27;;;;;;;19.83;49.03;100414.25;4909998;29;20236;-68
2022/05/16 03:06:10;;;;;;;6.30;2.70;;;;;;;19.88;48.79;100411.75;4910351;29;20205;-68
2022/05/16 03:08:43;;;;;;;6.37;3.10;;;;;;;19.87;48.87;100412.81;4906546;29;20228;-68
2022/05/16 03:11:11;;;;;;;8.83;3.67;;;;;;;19.87;48.69;100412.00;4912245;29;20693;-68
2022/05/16 03:13:39;;;;;;;12.13;3.70;;;;;;;19.89;48.88;100415.28;4908682;29;20248;-68
2022/05/16 03:16:06;;;;;;;7.93;3.80;;;;;;;19.70;49.51;100425.03;4905145;29;20209;-68
2022/05/16 03:18:34;;;;;;;7.70;2.80;;;;;;;19.67;49.86;100417.38;4907181;29;20217;-68
2022/05/16 03:21:04;;;;;;;6.47;3.33;;;;;;;19.60;50.15;100424.63;4911739;29;20227;-68
2022/05/16 03:23:49;;;;;;;6.27;2.93;;;;;;;19.56;50.25;100409.09;4910497;29;20236;-68
2022/05/16 03:26:17;;;;;;;6.93;2.93;;;;;;;19.47;50.49;100401.25;4910334;29;20223;-68
2022/05/16 03:28:45;;;;;;;7.50;3.23;;;;;;;19.36;51.15;100395.63;4908327;29;20213;-68
2022/05/16 03:31:12;;;;;;;7.90;3.57;;;;;;;19.29;51.15;100398.31;4909180;29;20223;-68
2022/05/16 03:33:40;;;;;;;9.83;3.33;;;;;;;19.31;51.03;100392.75;4907907;29;20228;-69
2022/05/16 03:36:10;;;;;;;7.43;3.30;;;;;;;19.28;50.88;100393.97;4908224;29;20217;-68
2022/05/16 03:41:23;;;;;;;8.57;3.40;;;;;;;19.33;50.99;100390.69;4908183;29;20572;-68
2022/05/16 03:43:51;;;;;;;6.80;3.30;;;;;;;19.32;51.27;100397.09;4911553;29;20213;-67
2022/05/16 03:46:20;;;;;;;8.33;3.03;;;;;;;19.34;51.29;100395.88;4907309;29;20220;-68
2022/05/16 03:48:48;;;;;;;6.20;3.20;;;;;;;19.37;51.39;100400.81;4905114;29;20227;-69
2022/05/16 03:51:18;;;;;;;18.60;3.43;;;;;;;19.43;51.11;100400.00;4913337;29;20204;-68
2022/05/16 03:53:47;;;;;;;9.07;2.80;;;;;;;19.47;50.86;100395.88;4906871;29;20303;-69
2022/05/16 03:56:15;;;;;;;7.47;3.10;;;;;;;19.51;50.47;100399.81;4913614;29;20603;-68
2022/05/16 03:58:43;;;;;;;6.27;3.23;;;;;;;19.53;50.60;100404.97;4907351;29;20427;-69
2022/05/16 04:01:11;;;;;;;9.20;3.33;;;;;;;19.50;50.68;100400.84;4906855;29;20307;-69
2022/05/16 04:03:39;;;;;;;7.73;3.33;;;;;;;19.50;50.43;100402.72;4907894;29;20780;-69
2022/05/16 04:06:07;;;;;;;12.17;3.53;;;;;;;19.36;51.27;100404.53;4911855;29;20213;-68
2022/05/16 04:08:36;;;;;;;10.77;3.57;;;;;;;19.34;51.10;100405.78;4907123;29;20270;-68
2022/05/16 04:11:04;;;;;;;6.03;3.13;;;;;;;19.23;52.06;100411.78;4910923;29;20231;-68
2022/05/16 04:13:33;;;;;;;6.90;3.53;;;;;;;19.22;51.65;100420.88;4909442;29;20323;-68
2022/05/16 04:16:00;;;;;;;7.77;3.13;;;;;;;19.14;52.47;100422.72;4909096;29;20251;-69
2022/05/16 04:18:32;;;;;;;6.50;3.20;;;;;;;19.12;51.87;100421.25;4907485;29;20308;-69
2022/05/16 04:21:01;;;;;;;15.20;4.03;;;;;;;19.15;52.59;100421.69;4905484;29;20322;-69
2022/05/16 04:23:32;;;;;;;11.27;4.00;;;;;;;19.14;52.81;100417.34;4904658;29;20237;-69
2022/05/16 04:26:01;;;;;;;9.83;3.70;;;;;;;19.20;52.87;100425.63;4908145;29;20509;-69
2022/05/16 04:28:29;;;;;;;9.03;3.63;;;;;;;19.26;53.35;100430.19;4905264;29;20216;-69
2022/05/16 04:30:57;;;;;;;7.03;3.90;;;;;;;19.29;53.02;100419.84;4910997;29;20244;-69
2022/05/16 04:33:25;;;;;;;12.60;4.33;;;;;;;19.21;53.66;100427.28;4911305;29;20591;-69
2022/05/16 04:35:52;;;;;;;8.87;3.50;;;;;;;19.03;54.00;100423.31;4910912;29;20209;-68
2022/05/16 04:38:20;;;;;;;8.33;3.77;;;;;;;18.94;54.23;100421.84;4908255;29;20212;-65
2022/05/16 04:43:34;;;;;;;8.77;3.83;;;;;;;18.93;54.66;100425.56;4907851;29;20236;-65
2022/05/16 04:46:05;;;;;;;10.40;4.27;;;;;;;18.92;54.41;100434.66;4907855;29;20217;-64
2022/05/16 04:48:33;;;;;;;10.73;4.13;;;;;;;18.94;54.17;100429.91;4907649;29;20303;-64
2022/05/16 04:51:03;;;;;;;9.47;4.73;;;;;;;18.93;53.94;100436.31;4913929;29;20219;-65
2022/05/16 04:53:31;;;;;;;9.57;3.47;;;;;;;18.88;54.62;100433.44;4912589;29;20212;-65
2022/05/16 04:56:01;;;;;;;16.17;4.10;;;;;;;18.85;54.64;100439.19;4912314;29;20219;-65
2022/05/16 04:58:29;;;;;;;13.73;3.77;;;;;;;18.88;54.51;100441.47;4910395;29;20213;-66
2022/05/16 05:00:58;;;;;;;8.37;3.70;;;;;;;18.98;54.65;100446.47;4910980;29;20216;-66
2022/05/16 05:03:26;;;;;;;8.07;3.80;;;;;;;19.08;54.41;100444.22;4911013;29;20267;-65
2022/05/16 05:05:54;;;;;;;7.13;4.23;;;;;;;19.20;53.69;100442.56;4911639;29;20225;-64
2022/05/16 05:08:22;;;;;;;10.80;4.13;;;;;;;19.25;53.29;100452.72;4910308;29;20217;-64
2022/05/16 05:16:24;;;;;;;9.07;4.20;;;;;;;19.10;54.23;100453.72;4909298;29;20607;-66
2022/05/16 05:18:52;;;;;;;9.33;4.87;;;;;;;19.17;53.88;100449.16;4914406;29;20205;-65
2022/05/16 05:21:20;;;;;;;9.17;4.93;;;;;;;19.18;54.29;100450.84;4910748;29;20209;-66
2022/05/16 05:23:48;;;;;;;11.80;4.70;;;;;;;19.16;55.51;100442.16;4916720;29;20240;-65
2022/05/16 05:26:16;;;;;;;11.23;5.17;;;;;;;19.14;55.30;100448.78;4909417;29;20229;-66
2022/05/16 05:28:44;;;;;;;9.43;5.43;;;;;;;19.10;55.40;100448.34;4909823;29;20205;-66
2022/05/16 05:31:18;;;;;;;9.07;4.47;;;;;;;19.13;55.57;100447.94;4911407;29;20915;-66
2022/05/16 05:33:48;;;;;;;9.03;4.60;;;;;;;19.12;55.48;100457.03;4908884;29;20240;-65
2022/05/16 05:36:16;;;;;;;12.37;4.30;;;;;;;19.10;55.69;100451.03;4915340;29;20209;-64
2022/05/16 05:38:43;;;;;;;9.87;4.17;;;;;;;19.11;56.14;100463.44;4915372;29;21848;-67
2022/05/16 05:41:11;;;;;;;11.53;4.00;;;;;;;19.19;55.98;100467.78;4924332;29;20212;-67
2022/05/16 05:43:39;;;;;;;11.70;4.30;;;;;;;19.20;56.62;100469.44;4915404;29;20235;-64
2022/05/16 05:46:07;;;;;;;10.70;4.37;;;;;;;19.13;56.87;100464.06;4913196;29;20219;-63
2022/05/16 05:48:35;;;;;;;10.00;4.27;;;;;;;19.04;57.33;100465.28;4911120;29;20576;-64
2022/05/16 05:51:04;;;;;;;14.67;4.83;;;;;;;18.99;57.39;100475.00;4913604;29;20227;-64
2022/05/16 05:53:32;;;;;;;15.67;4.27;;;;;;;18.92;57.58;100472.28;4913228;29;20208;-64
2022/05/16 05:56:00;;;;;;;11.80;4.30;;;;;;;18.94;57.15;100485.50;4910191;29;20579;-64
2022/05/16 05:58:28;;;;;;;8.73;4.40;;;;;;;18.94;57.54;100482.81;4910851;29;20221;-63
2022/05/16 06:00:55;;;;;;;13.60;4.37;;;;;;;19.00;57.25;100490.06;4909317;29;20215;-64
2022/05/16 06:03:23;;;;;;;14.17;4.37;;;;;;;19.00;57.86;100479.31;4909304;29;20742;-63
2022/05/16 06:05:51;;;;;;;20.30;4.97;;;;;;;18.98;57.46;100487.59;4916557;29;20244;-68
2022/05/16 06:08:20;;;;;;;14.43;4.97;;;;;;;18.91;57.94;100486.72;4914763;29;20228;-65
2022/05/16 06:10:49;;;;;;;15.27;4.90;;;;;;;18.92;58.11;100483.03;4913465;29;20300;-63
2022/05/16 06:13:20;;;;;;;14.03;4.40;;;;;;;18.98;58.14;100489.47;4908635;29;20275;-64
2022/05/16 06:15:48;;;;;;;20.10;5.47;;;;;;;19.01;58.27;100497.94;4908703;29;20212;-68
2022/05/16 06:18:16;;;;;;;11.10;4.40;;;;;;;19.04;58.20;100494.03;4910860;29;20220;-63
2022/05/16 06:20:44;;;;;;;19.10;5.07;;;;;;;19.21;57.55;100489.09;4912194;29;20212;-63
2022/05/16 06:23:14;;;;;;;19.63;4.93;;;;;;;19.21;57.55;100499.84;4909358;29;20319;-62
2022/05/16 06:25:44;;;;;;;17.87;5.63;;;;;;;19.24;57.89;100502.13;4910271;29;20307;-64
2022/05/16 06:28:15;;;;;;;19.07;5.07;;;;;;;19.26;57.86;100506.25;4912639;29;20295;-63
2022/05/16 06:30:44;;;;;;;7.70;4.77;;;;;;;19.31;57.62;100503.81;4909721;29;20339;-64
2022/05/16 06:33:12;;;;;;;14.13;4.67;;;;;;;19.31;58.06;100502.97;4911528;29;20777;-64
2022/05/16 06:35:41;;;;;;;18.53;4.80;;;;;;;19.42;57.63;100505.06;4915468;29;20217;-65
2022/05/16 06:38:16;;;;;;;10.97;4.30;;;;;;;19.45;57.49;100512.72;4913740;29;20208;-64
2022/05/16 06:40:55;;;;;;;7.60;4.30;;;;;;;19.45;57.43;100508.16;4916060;29;20213;-64
2022/05/16 06:43:25;;;;;;;11.53;4.93;;;;;;;19.61;56.87;100516.91;4911329;29;20252;-64
2022/05/16 06:45:53;;;;;;;12.43;4.43;;;;;;;19.60;56.60;100518.78;4911808;29;20730;-64
2022/05/16 06:48:21;;;;;;;13.30;5.10;;;;;;;19.64;56.42;100521.88;4912928;29;20213;-63
2022/05/16 06:50:50;;;;;;;12.90;4.40;;;;;;;19.65;56.61;100521.66;4915453;29;20301;-64
2022/05/16 06:53:22;;;;;;;15.90;4.53;;;;;;;19.67;56.95;100527.69;4910914;29;20570;-63
2022/05/16 06:55:51;;;;;;;12.37;4.23;;;;;;;19.66;56.78;100526.03;4910402;29;20218;-68
2022/05/16 06:58:19;;;;;;;16.67;5.10;;;;;;;19.69;56.99;100517.56;4910540;29;20978;-67
2022/05/16 07:00:47;;;;;;;14.20;5.03;;;;;;;19.71;57.08;100520.84;4906343;29;20244;-67
2022/05/16 07:03:15;;;;;;;16.33;4.87;;;;;;;19.70;57.83;100524.56;4911620;29;20243;-67
2022/05/16 07:05:47;;;;;;;9.60;4.57;;;;;;;19.80;57.40;100524.97;4912214;29;20209;-67
2022/05/16 07:08:15;;;;;;;11.40;4.87;;;;;;;19.83;57.29;100524.56;4916603;29;20685;-67
2022/05/16 07:10:43;;;;;;;11.20;4.53;;;;;;;19.89;57.41;100526.44;4913048;29;20256;-68
2022/05/16 07:13:13;;;;;;;9.50;4.77;;;;;;;19.91;57.42;100527.06;4910776;29;20954;-69
2022/05/16 07:15:41;;;;;;;13.17;5.10;;;;;;;19.98;57.07;100534.28;4912941;29;20213;-68
2022/05/16 07:18:08;;;;;;;15.33;5.93;;;;;;;20.03;57.37;100529.13;4909206;29;20504;-69
2022/05/16 07:20:38;;;;;;;12.77;5.53;;;;;;;20.10;57.38;100522.69;4909826;29;20265;-68
2022/05/16 07:23:07;;;;;;;17.77;5.77;;;;;;;20.17;57.31;100526.22;4911891;29;20296;-68
2022/05/16 07:28:22;;;;;;;12.43;5.13;;;;;;;20.33;56.84;100535.69;4911606;29;20212;-68
2022/05/16 07:30:51;;;;;;;14.13;4.70;;;;;;;20.31;56.72;100528.91;4913171;29;20288;-68
2022/05/16 07:33:18;;;;;;;15.03;5.50;;;;;;;20.47;56.59;100537.38;4907755;29;20635;-68
2022/05/16 07:35:50;;;;;;;12.73;4.97;;;;;;;20.58;57.02;100539.41;4917472;29;20684;-68
2022/05/16 07:38:18;;;;;;;17.63;5.83;;;;;;;20.78;56.57;100536.66;4913367;29;20537;-68
2022/05/16 07:40:49;;;;;;;14.10;4.90;;;;;;;20.89;56.98;100535.16;4912720;29;20319;-69
2022/05/16 07:43:17;;;;;;;19.80;5.83;;;;;;;21.05;56.31;100534.66;4911227;29;20213;-69
2022/05/16 07:45:48;;;;;;;12.63;5.10;;;;;;;21.27;55.08;100536.06;4913343;29;20295;-68
2022/05/16 07:48:16;;;;;;;12.73;4.77;;;;;;;21.34;55.35;100544.09;4911891;29;20212;-69
2022/05/16 07:50:45;;;;;;;12.57;4.63;;;;;;;21.45;55.17;100547.97;4912914;29;20655;-69
2022/05/16 07:53:14;;;;;;;14.30;4.40;;;;;;;21.45;55.19;100545.28;4910388;29;20204;-69
2022/05/16 07:55:44;;;;;;;11.97;4.70;;;;;;;21.67;54.85;100546.56;4912082;29;20213;-70
2022/05/16 07:58:13;;;;;;;10.57;4.53;;;;;;;21.81;54.15;100550.84;4912962;29;20224;-70
2022/05/16 08:00:44;;;;;;;15.40;4.13;;;;;;;21.91;52.99;100547.63;4916428;29;20220;-70
2022/05/16 08:03:14;;;;;;;9.83;4.33;;;;;;;21.96;52.90;100545.94;4912110;29;20213;-71
2022/05/16 08:05:43;;;;;;;10.37;4.13;;;;;;;22.10;52.76;100544.78;4912863;29;20221;-70
2022/05/16 08:11:09;;;;;;;10.80;3.60;;;;;;;22.25;54.21;100543.63;4887597;29;20304;-70
2022/05/16 08:13:38;;;;;;;11.50;4.60;;;;;;;22.45;52.79;100542.38;4912338;29;20232;-70
2022/05/16 08:16:06;;;;;;;10.93;4.93;;;;;;;22.41;54.02;100545.75;4916694;29;20222;-70
2022/05/16 08:18:35;;;;;;;11.67;5.30;;;;;;;22.49;54.14;100550.88;4912859;29;20209;-70
2022/05/16 08:21:03;;;;;;;14.97;4.80;;;;;;;22.67;53.48;100545.47;4912244;29;20591;-70
2022/05/16 08:23:33;;;;;;;10.00;4.20;;;;;;;22.82;53.11;100548.66;4912866;29;20821;-70
2022/05/16 08:26:04;;;;;;;9.30;3.60;;;;;;;23.02;52.05;100553.81;4911963;29;20241;-70
2022/05/16 08:28:32;;;;;;;11.68;4.55;;;;;;;23.25;50.84;100544.97;4911899;29;20594;-72
2022/05/16 08:31:00;;;;;;;14.52;3.58;;;;;;;23.30;50.49;100550.53;4911841;29;20633;-71
2022/05/16 08:33:28;;;;;;;9.32;3.88;;;;;;;23.42;49.99;100551.38;4913451;29;20296;-70
2022/05/16 08:41:29;;;;;;;14.90;4.47;;;;;;;;;;4912363;29;20295;-71
2022/05/16 08:44:07;;;;;;;13.18;3.92;;;;;;;24.07;48.56;100556.03;4910115;29;20674;-70
2022/05/16 08:46:37;;;;;;;10.63;3.63;;;;;;;24.07;48.49;100561.44;4912733;29;20234;-71
2022/05/16 08:49:18;;;;;;;9.60;3.92;;;;;;;24.25;47.93;100558.66;4910038;29;20295;-72
2022/05/16 08:51:53;;;;;;;14.23;4.43;;;;;;;24.36;47.71;100561.34;4907975;29;20658;-70
2022/05/16 08:54:32;;;;;;;14.48;4.25;;;;;;;24.66;46.62;100565.81;4906456;29;20226;-69
2022/05/16 08:57:04;;;;;;;11.43;4.28;;;;;;;24.68;46.91;100558.28;4907852;29;20684;-69
2022/05/16 08:59:37;;;;;;;9.35;3.55;;;;;;;24.60;47.51;100564.06;4910383;29;20238;-69
2022/05/16 09:02:09;;;;;;;10.43;4.22;;;;;;;24.58;47.97;100560.75;4910225;29;20251;-69
2022/05/16 09:04:49;;;;;;;10.35;4.05;;;;;;;24.57;48.59;100553.69;4909287;29;20237;-69
2022/05/16 09:07:24;;;;;;;10.05;3.97;;;;;;;24.72;47.96;100554.00;4911893;29;20208;-70
2022/05/16 09:10:02;;;;;;;148.15;15.30;;;;;;;25.10;47.29;100558.91;4913810;29;20583;-67
2022/05/16 09:12:34;;;;;;;17.02;5.00;;;;;;;25.32;46.99;100557.19;4909581;29;20219;-65
2022/05/16 09:15:14;;;;;;;10.30;4.00;;;;;;;25.06;46.34;100549.63;4907520;29;20993;-67
2022/05/16 09:17:58;;;;;;;14.88;4.68;;;;;;;25.22;46.62;100548.00;4915737;29;20307;-69
2022/05/16 09:20:33;;;;;;;16.73;9.07;;;;;;;25.35;46.21;100547.72;4910998;29;20216;-69
2022/05/16 09:23:10;;;;;;;15.50;5.53;;;;;;;25.44;47.14;100546.25;4915754;29;20226;-69
2022/05/16 09:25:47;;;;;;;10.98;6.38;;;;;;;25.52;46.43;100545.03;4919011;29;20236;-70
2022/05/16 09:31:11;;;;;;;12.85;4.72;;;;;;;25.62;46.40;100554.22;4914998;29;20213;-70
2022/05/16 09:33:45;;;;;;;10.48;4.28;;;;;;;25.77;46.95;100551.75;4916751;29;20331;-70
2022/05/16 09:36:16;;;;;;;11.20;4.05;;;;;;;25.80;46.98;100553.16;4913360;29;20215;-69
2022/05/16 09:38:45;;;;;;;14.35;4.95;;;;;;;25.85;46.61;100554.09;4914074;29;20252;-72
2022/05/16 09:41:21;;;;;;;12.60;4.72;;;;;;;25.86;46.79;100561.13;4917408;29;20300;-72
2022/05/16 09:43:56;;;;;;;10.25;4.22;;;;;;;25.94;45.65;100554.50;4914605;29;20779;-71
2022/05/16 09:46:31;;;;;;;9.48;3.75;;;;;;;25.90;46.03;100566.09;4912937;29;20327;-72
2022/05/16 09:49:06;;;;;;;12.18;4.55;;;;;;;26.06;45.74;100560.66;4913012;29;20219;-72
2022/05/16 09:51:40;;;;;;;7.47;3.83;;;;;;;26.18;46.32;100572.25;4915242;29;20252;-75
2022/05/16 09:54:25;;;;;;;6.65;4.00;;;;;;;26.24;46.35;100570.44;4912747;29;20230;-68
2022/05/16 09:56:58;;;;;;;11.05;4.03;;;;;;;26.08;46.01;100574.81;4913010;29;20219;-68
2022/05/16 09:59:39;;;;;;;9.02;4.18;;;;;;;26.08;46.01;100571.28;4912954;29;20233;-67
2022/05/16 10:02:17;;;;;;;10.52;3.70;;;;;;;26.18;46.08;100574.16;4909949;29;20315;-70
2022/05/16 10:04:58;;;;;;;8.32;4.20;;;;;;;26.25;44.65;100574.81;4914357;29;20339;-73
2022/05/16 10:07:40;;;;;;;11.07;4.22;;;;;;;26.25;45.73;100580.25;4913504;29;20335;-70
2022/05/16 10:10:17;;;;;;;9.73;4.22;;;;;;;26.12;45.64;100588.75;4913466;29;20731;-71
2022/05/16 10:12:46;;;;;;;9.65;4.68;;;;;;;25.93;45.70;100595.50;4911105;29;20597;-70
2022/05/16 10:15:14;;;;;;;6.35;3.70;;;;;;;25.92;46.29;100600.09;4916245;29;20204;-70
2022/05/16 10:17:45;;;;;;;9.32;4.50;;;;;;;25.86;46.62;100593.72;4912608;29;20702;-66
2022/05/16 10:20:18;;;;;;;8.23;4.15;;;;;;;25.79;46.97;100603.13;4914083;29;20217;-71
2022/05/16 10:22:47;;;;;;;14.25;4.78;;;;;;;25.73;47.48;100604.91;4910059;29;20276;-74
2022/05/16 10:25:36;;;;;;;8.10;3.67;;;;;;;25.64;47.71;100611.81;4911681;29;20213;-69
2022/05/16 10:28:11;;;;;;;9.90;3.90;;;;;;;25.54;47.81;100618.91;4913420;29;20212;-72
2022/05/16 10:33:32;;;;;;;34.28;4.75;;;;;;;25.53;48.58;100615.38;4913930;29;20241;-71
2022/05/16 10:36:05;;;;;;;11.48;4.65;;;;;;;25.62;47.79;100616.66;4912426;29;20473;-72
2022/05/16 10:38:39;;;;;;;8.57;4.20;;;;;;;25.71;47.32;100612.50;4914217;29;20644;-72
2022/05/16 10:41:12;;;;;;;9.85;3.78;;;;;;;25.91;47.08;100616.63;4912211;29;20663;-72
2022/05/16 10:43:55;;;;;;;7.55;3.78;;;;;;;25.99;47.22;100610.78;4910456;29;20696;-68
2022/05/16 10:46:30;;;;;;;9.70;3.92;;;;;;;26.01;47.09;100611.38;4906501;29;20216;-69
2022/05/16 10:49:05;;;;;;;10.98;4.78;;;;;;;26.08;47.18;100612.03;4913574;29;20212;-70
2022/05/16 10:51:39;;;;;;;15.57;4.25;;;;;;;26.18;46.99;100607.59;4909471;29;20643;-69
2022/05/16 10:54:12;;;;;;;10.55;4.15;;;;;;;26.24;46.70;100605.78;4907829;29;20209;-70
2022/05/16 10:56:49;;;;;;;11.90;3.83;;;;;;;26.34;47.37;100603.25;4911807;29;20244;-70
2022/05/16 10:59:31;;;;;;;10.77;4.13;;;;;;;26.51;46.87;100604.03;4910557;29;20204;-70
2022/05/16 11:02:05;;;;;;;13.23;3.92;;;;;;;26.68;46.54;100609.44;4910813;29;20264;-71
2022/05/16 11:04:44;;;;;;;11.07;3.58;;;;;;;26.78;45.45;100600.63;4912269;29;20212;-70
2022/05/16 11:07:27;;;;;;;10.25;3.58;;;;;;;26.71;45.79;100610.84;4912529;29;20236;-70
2022/05/16 11:10:09;;;;;;;12.88;3.28;;;;;;;26.58;45.87;100601.16;4910315;29;20213;-70
2022/05/16 11:12:45;;;;;;;12.60;2.95;;;;;;;26.73;44.95;100609.53;4907518;29;20311;-70
2022/05/16 11:15:26;;;;;;;8.77;3.03;;;;;;;26.67;44.50;100602.38;4910771;29;20729;-70
2022/05/16 11:18:00;;;;;;;15.70;3.88;;;;;;;26.69;44.08;100591.25;4909740;29;20248;-70
2022/05/16 11:20:33;;;;;;;10.73;3.30;;;;;;;26.70;44.50;100598.31;4909604;29;20678;-70
2022/05/16 11:23:11;;;;;;;12.05;3.00;;;;;;;26.84;44.67;100602.31;4912268;29;20934;-70
2022/05/16 11:25:46;;;;;;;9.25;2.80;;;;;;;26.76;45.08;100605.47;4909507;29;20234;-70
2022/05/16 11:28:28;;;;;;;10.98;3.20;;;;;;;26.58;44.98;100604.69;4912271;29;20212;-70
2022/05/16 11:31:00;;;;;;;14.30;3.30;;;;;;;26.45;45.50;100609.66;4911383;29;20292;-71
2022/05/16 11:33:37;;;;;;;8.18;3.42;;;;;;;26.33;46.23;100609.75;4909977;29;20359;-70
2022/05/16 11:36:10;;;;;;;7.68;3.53;;;;;;;26.15;46.33;100620.84;4905056;29;20294;-69
2022/05/16 11:39:03;;;;;;;6.70;2.83;;;;;;;25.94;45.31;100616.16;4911472;29;20587;-69
2022/05/16 11:41:51;;;;;;;11.73;2.75;;;;;;;25.79;45.77;100622.13;4911902;29;20358;-70
2022/05/16 11:44:30;;;;;;;11.45;2.83;;;;;;;25.67;46.28;100618.66;4909895;29;20211;-71
2022/05/16 11:47:08;;;;;;;9.63;2.28;;;;;;;25.57;46.52;100621.16;4912229;29;20598;-70
2022/05/16 11:50:01;;;;;;;8.48;2.88;;;;;;;25.42;47.12;100624.38;4913642;29;20224;-70
2022/05/16 11:52:57;;;;;;;15.45;3.53;;;;;;;25.36;47.42;100625.34;4914992;29;20223;-70
2022/05/16 12:01:06;;;;;;;13.85;2.90;;;;;;;24.88;48.77;100640.09;4907556;29;20235;-70
2022/05/16 12:03:36;;;;;;;12.25;2.17;;;;;;;24.89;48.70;100635.47;4911188;29;20314;-69
2022/05/16 12:06:22;;;;;;;10.60;2.15;;;;;;;24.84;48.90;100643.50;4911664;29;20497;-70
2022/05/16 12:08:50;;;;;;;10.82;2.20;;;;;;;24.77;49.33;100640.91;4910713;29;20248;-70
2022/05/16 12:11:23;;;;;;;10.52;2.13;;;;;;;24.83;48.80;100648.09;4910306;29;20209;-70
2022/05/16 12:14:14;;;;;;;;;;;;;;;;;;;;;
2022/05/16 12:16:56;;;;;;;12.73;1.75;;;;;;;24.76;48.85;100655.53;4911268;29;20709;-69
2022/05/16 12:19:31;;;;;;;8.02;1.80;;;;;;;24.83;48.78;100658.94;4910591;29;20224;-69
2022/05/16 12:22:07;;;;;;;6.53;1.95;;;;;;;24.75;48.99;100662.00;4912106;29;20300;-69